Time;durP1;ratioP1;P1;durP2;ratioP2;P2;SDS_P1;SDS_P2;PMS_P1;PMS_P2;Temp;Humidity;BMP_temperature;BMP_pressure;BME280_temperature;BME280_humidity;BME280_pressure;Samples;Min_cycle;Max_cycle;Signal;HPM_P1;HPM_P2
2022/09/23 00:01:03;;;;;;;39.23;23.25;;;;;;;9.14;83.10;99077.81;1775813;80;25439;-70
2022/09/23 00:03:31;;;;;;;40.20;22.77;;;;;;;9.18;83.12;99074.74;1776348;80;25445;-68
2022/09/23 00:06:00;;;;;;;35.80;21.80;;;;;;;9.22;82.81;99079.08;1775555;80;25464;-69
2022/09/23 00:08:27;;;;;;;38.83;22.05;;;;;;;9.14;82.46;99083.28;1775968;79;25595;-70
2022/09/23 00:10:54;;;;;;;40.55;21.75;;;;;;;8.96;82.85;99080.23;1775863;79;28264;-70
2022/09/23 00:13:23;;;;;;;41.40;22.70;;;;;;;8.87;83.57;99078.68;1775525;80;25472;-70
2022/09/23 00:15:50;;;;;;;37.20;22.60;;;;;;;8.89;83.70;99077.02;1775832;80;25425;-71
2022/09/23 00:18:16;;;;;;;38.95;23.47;;;;;;;8.84;83.52;99072.44;1775562;80;25495;-71
2022/09/23 00:20:44;;;;;;;42.75;22.95;;;;;;;8.85;83.58;99067.25;1775813;80;25626;-69
2022/09/23 00:23:10;;;;;;;43.42;23.22;;;;;;;8.80;83.19;99065.93;1775930;80;27581;-70
2022/09/23 00:25:36;;;;;;;39.55;23.32;;;;;;;8.71;83.14;99066.31;1775832;79;25429;-70
2022/09/23 00:28:02;;;;;;;39.73;23.65;;;;;;;8.62;83.20;99064.78;1775585;79;25598;-68
2022/09/23 00:30:30;;;;;;;45.58;24.37;;;;;;;8.55;83.35;99065.11;1775876;80;25570;-69
2022/09/23 00:32:56;;;;;;;41.40;21.97;;;;;;;8.55;83.80;99054.76;1775723;80;25094;-69
2022/09/23 00:35:22;;;;;;;49.35;24.43;;;;;;;8.55;83.63;99058.28;1775585;80;27445;-70
2022/09/23 00:37:48;;;;;;;39.55;23.42;;;;;;;8.61;83.72;99063.95;1775847;80;25451;-70
2022/09/23 00:40:14;;;;;;;44.45;23.75;;;;;;;8.58;83.13;99066.47;1775963;80;25671;-70
2022/09/23 00:42:50;;;;;;;44.13;25.37;;;;;;;8.58;83.59;99061.01;1776046;79;25432;-69
2022/09/23 00:45:17;;;;;;;44.93;24.18;;;;;;;8.57;83.38;99057.99;1775747;80;25401;-70
2022/09/23 00:47:57;;;;;;;46.02;25.10;;;;;;;8.54;83.42;99055.30;1775673;80;28513;-70
2022/09/23 00:50:39;;;;;;;44.45;24.65;;;;;;;8.43;83.06;99059.23;1775946;80;25591;-71
2022/09/23 00:53:10;;;;;;;45.05;24.67;;;;;;;8.36;83.65;99056.29;1742896;80;25597;-69
2022/09/23 00:55:41;;;;;;;;;;;;;;;8.30;83.84;99047.88;1778160;80;25524;-70
2022/09/23 00:58:11;;;;;;;42.88;24.82;;;;;;;8.26;83.81;99046.84;1775653;80;25471;-67
2022/09/23 01:00:38;;;;;;;40.40;23.42;;;;;;;8.20;83.93;99047.42;1775903;80;27950;-68
2022/09/23 01:03:06;;;;;;;46.42;27.95;;;;;;;8.19;83.84;99050.44;1775486;80;25437;-69
2022/09/23 01:05:35;;;;;;;53.15;31.60;;;;;;;8.15;83.88;99049.65;1775923;80;25650;-70
2022/09/23 01:08:03;;;;;;;46.68;25.97;;;;;;;8.17;84.06;99052.09;1775501;80;25590;-70
2022/09/23 01:10:53;;;;;;;44.75;25.95;;;;;;;8.19;83.88;99045.80;1775969;80;25606;-70
2022/09/23 01:13:50;;;;;;;44.23;24.18;;;;;;;8.24;83.77;99053.13;1775760;80;27455;-69
2022/09/23 01:16:45;;;;;;;36.58;21.73;;;;;;;8.22;83.70;99038.41;1775189;80;25406;-70
2022/09/23 01:19:56;;;;;;;36.08;20.97;;;;;;;8.19;83.62;99034.06;1774491;80;25590;-70
2022/09/23 01:22:55;;;;;;;43.63;26.45;;;;;;;8.17;83.91;99032.98;1775873;80;26273;-70
2022/09/23 01:25:39;;;;;;;31.37;18.65;;;;;;;8.22;83.85;99034.85;1751350;81;25478;-70
2022/09/23 01:28:26;;;;;;;33.23;19.70;;;;;;;8.16;83.78;99035.45;1760760;81;27403;-71
2022/09/23 01:31:01;;;;;;;32.38;21.07;;;;;;;8.16;84.07;99033.55;1765266;81;26081;-66
2022/09/23 01:33:41;;;;;;;35.20;19.73;;;;;;;8.12;83.37;99030.32;1764936;81;25657;-70
2022/09/23 01:36:24;;;;;;;30.68;19.50;;;;;;;8.03;83.60;99023.28;1765490;81;25500;-70
2022/09/23 01:39:10;;;;;;;29.82;18.48;;;;;;;7.91;83.39;99029.95;1765036;81;25748;-71
2022/09/23 01:42:01;;;;;;;33.20;19.05;;;;;;;7.84;83.69;99039.57;1765851;81;27385;-69
2022/09/23 01:44:48;;;;;;;31.23;17.85;;;;;;;7.80;83.95;99033.86;1764554;81;25989;-70
2022/09/23 01:47:22;;;;;;;31.33;18.00;;;;;;;7.77;83.80;99033.06;1765628;81;25722;-68
2022/09/23 01:53:01;;;;;;;31.37;18.30;;;;;;;7.65;84.15;99034.27;1765677;81;25654;-71
2022/09/23 01:55:34;;;;;;;29.12;16.85;;;;;;;7.72;84.45;99032.59;1766047;81;27600;-70
2022/09/23 01:58:14;;;;;;;28.42;17.32;;;;;;;7.76;84.23;99031.45;1765858;81;25641;-70
2022/09/23 02:00:52;;;;;;;30.35;17.87;;;;;;;7.76;83.84;99028.72;1772386;80;25512;-70
2022/09/23 02:03:25;;;;;;;29.50;18.42;;;;;;;7.77;84.36;99026.25;1782512;80;25572;-70
2022/09/23 02:05:58;;;;;;;32.30;19.00;;;;;;;7.77;84.26;99023.52;1783597;80;25713;-71
2022/09/23 02:08:33;;;;;;;34.27;20.62;;;;;;;7.73;84.28;99028.75;1784729;79;27474;-71
2022/09/23 02:11:04;;;;;;;36.10;19.75;;;;;;;7.74;84.56;99026.81;1784182;80;25666;-71
2022/09/23 02:13:48;;;;;;;31.25;18.95;;;;;;;7.71;84.03;99029.58;1783470;80;25658;-70
2022/09/23 02:16:23;;;;;;;40.15;21.52;;;;;;;7.65;84.45;99030.17;1784169;80;25602;-69
2022/09/23 02:18:57;;;;;;;37.75;20.55;;;;;;;7.61;84.49;99025.03;1784125;79;25677;-68
2022/09/23 02:21:28;;;;;;;33.33;19.27;;;;;;;7.55;84.60;99021.25;1784569;80;26920;-69
2022/09/23 02:24:12;;;;;;;33.20;19.12;;;;;;;7.51;84.71;99018.27;1784089;80;25487;-69
2022/09/23 02:26:55;;;;;;;26.75;16.95;;;;;;;7.44;84.56;99025.42;1782977;80;25605;-67
2022/09/23 02:29:28;;;;;;;27.48;17.02;;;;;;;7.45;84.83;99023.52;1801107;79;25622;-68
2022/09/23 02:32:18;;;;;;;28.92;16.65;;;;;;;7.43;84.97;99024.34;1801031;79;25737;-69
2022/09/23 02:35:11;;;;;;;36.53;21.40;;;;;;;7.39;85.05;99016.73;1801195;79;27549;-69
2022/09/23 02:38:15;;;;;;;57.80;29.77;;;;;;;7.39;85.28;99016.73;1801112;79;25545;-69
2022/09/23 02:40:53;;;;;;;46.45;25.68;;;;;;;7.48;85.55;99014.75;1801089;79;25486;-69
2022/09/23 02:43:41;;;;;;;39.45;21.52;;;;;;;7.48;85.37;99021.02;1799531;79;26365;-69
2022/09/23 02:46:08;;;;;;;32.98;19.25;;;;;;;7.48;85.49;99012.84;1800784;79;25629;-69
2022/09/23 02:48:45;;;;;;;28.75;17.87;;;;;;;7.57;85.84;99013.61;1801058;79;28308;-69
2022/09/23 02:51:13;;;;;;;39.58;22.10;;;;;;;7.65;85.87;99013.80;1800658;79;25709;-69
2022/09/23 02:53:39;;;;;;;31.48;19.05;;;;;;;7.72;85.74;99023.04;1801233;79;25728;-70
2022/09/23 02:56:19;;;;;;;33.83;23.70;;;;;;;7.80;85.60;99025.67;1801003;79;25488;-68
2022/09/23 02:58:52;;;;;;;38.75;26.82;;;;;;;7.79;85.23;99028.15;1801402;79;25468;-70
2022/09/23 03:01:55;;;;;;;77.35;37.58;;;;;;;7.83;85.51;99025.10;1800890;79;27760;-70
2022/09/23 03:05:05;;;;;;;122.90;47.48;;;;;;;7.87;85.65;99029.45;1800468;79;25638;-69
2022/09/23 03:08:18;;;;;;;39.65;20.75;;;;;;;7.88;85.59;99023.70;1801156;79;25681;-70
2022/09/23 03:11:04;;;;;;;187.15;61.23;;;;;;;7.89;85.61;99021.23;1691462;84;25507;-70
2022/09/23 03:14:16;;;;;;;101.72;37.13;;;;;;;7.86;85.61;99012.25;1691075;84;25527;-70
2022/09/23 03:16:51;;;;;;;149.70;50.78;;;;;;;7.78;85.65;99012.89;1691439;84;26109;-70
2022/09/23 03:19:41;;;;;;;73.37;29.10;;;;;;;7.74;85.94;99019.99;1691866;84;25571;-70
2022/09/23 03:22:31;;;;;;;56.23;25.27;;;;;;;7.64;86.26;99015.45;1690881;84;25510;-69
2022/09/23 03:25:11;;;;;;;50.67;22.80;;;;;;;7.68;86.79;99019.80;1691693;84;26589;-70
2022/09/23 03:27:41;;;;;;;32.85;17.02;;;;;;;7.75;86.53;99017.55;1690582;84;25769;-70
2022/09/23 03:30:09;;;;;;;24.80;14.83;;;;;;;7.75;86.69;99018.34;1686603;85;25909;-69
2022/09/23 03:32:37;;;;;;;21.52;13.18;;;;;;;7.81;86.78;99024.59;1686819;85;25544;-70
2022/09/23 03:35:06;;;;;;;79.03;36.23;;;;;;;7.83;86.87;99027.03;1686917;85;25586;-69
2022/09/23 03:37:49;;;;;;;222.40;59.80;;;;;;;7.95;87.16;99024.75;1686997;85;25653;-70
2022/09/23 03:40:29;;;;;;;316.42;74.12;;;;;;;8.07;86.54;99023.53;1685849;85;25610;-69
2022/09/23 03:42:57;;;;;;;216.78;53.25;;;;;;;8.14;86.39;99022.64;1687228;85;27459;-66
2022/09/23 03:45:32;;;;;;;234.72;54.85;;;;;;;8.16;86.03;99017.72;1686955;85;25701;-67
2022/09/23 03:47:59;;;;;;;202.65;49.63;;;;;;;8.19;86.23;99014.41;1776690;79;25582;-69
2022/09/23 03:50:26;;;;;;;114.67;33.35;;;;;;;8.22;86.32;99015.20;1795558;79;25935;-70
2022/09/23 03:52:53;;;;;;;143.25;40.55;;;;;;;8.24;86.48;99014.37;1795544;79;25603;-69
2022/09/23 03:55:20;;;;;;;122.22;36.68;;;;;;;8.24;86.35;99010.81;1795284;79;27207;-70
2022/09/23 03:57:47;;;;;;;86.32;29.12;;;;;;;8.22;86.75;99011.10;1794892;79;26314;-69
2022/09/23 04:00:15;;;;;;;167.72;48.48;;;;;;;8.26;86.82;99015.44;1795061;79;25570;-67
2022/09/23 04:02:42;;;;;;;159.75;44.48;;;;;;;8.26;86.67;99013.51;1795380;79;25481;-69
2022/09/23 04:05:11;;;;;;;93.67;30.35;;;;;;;8.28;86.48;99016.77;1795222;79;25412;-69
2022/09/23 04:07:38;;;;;;;155.50;46.23;;;;;;;8.34;86.66;99012.06;1795411;79;27431;-70
2022/09/23 04:10:07;;;;;;;85.55;32.28;;;;;;;8.38;86.52;99009.00;1795102;79;25421;-69
2022/09/23 04:12:33;;;;;;;99.40;36.17;;;;;;;8.41;86.35;99008.42;1795279;79;25426;-69
2022/09/23 04:15:00;;;;;;;114.12;38.25;;;;;;;8.48;86.57;99011.36;1795014;79;26133;-69
2022/09/23 04:17:27;;;;;;;56.90;23.57;;;;;;;8.51;86.12;99010.78;1795487;79;25384;-70
2022/09/23 04:19:53;;;;;;;70.30;25.97;;;;;;;8.50;86.29;99009.16;1795084;79;27301;-70
2022/09/23 04:22:20;;;;;;;57.75;23.92;;;;;;;8.55;86.44;99009.11;1795084;79;25400;-70
2022/09/23 04:24:48;;;;;;;137.70;41.30;;;;;;;8.52;86.16;99011.06;1795035;79;25685;-69
2022/09/23 04:27:14;;;;;;;81.00;29.67;;;;;;;8.51;86.12;99006.68;1794863;79;25631;-70
2022/09/23 04:29:40;;;;;;;61.65;24.98;;;;;;;8.47;86.03;99004.28;1784565;79;25401;-70
2022/09/23 04:32:07;;;;;;;47.93;21.52;;;;;;;8.43;86.16;99010.86;1784091;80;27443;-68
2022/09/23 04:34:33;;;;;;;34.63;17.05;;;;;;;8.38;86.17;99009.58;1784009;80;25641;-70
2022/09/23 04:36:59;;;;;;;29.10;15.40;;;;;;;8.34;86.14;99020.25;1784075;80;25468;-71
2022/09/23 04:39:26;;;;;;;36.08;17.82;;;;;;;8.31;86.04;99015.37;1784066;80;25464;-73
2022/09/23 04:41:52;;;;;;;36.65;17.92;;;;;;;8.35;86.65;99018.34;1784183;80;25393;-73
2022/09/23 04:44:20;;;;;;;42.53;19.82;;;;;;;8.38;86.29;99010.37;1784060;80;27527;-72
2022/09/23 04:46:46;;;;;;;37.05;19.62;;;;;;;8.44;86.29;99017.97;1784360;80;25593;-74
2022/09/23 04:49:14;;;;;;;39.42;22.40;;;;;;;8.41;85.97;99018.55;1784112;80;25435;-70
2022/09/23 04:51:44;;;;;;;49.48;26.45;;;;;;;8.41;85.98;99019.34;1784202;80;25408;-74
2022/09/23 04:54:20;;;;;;;34.35;19.85;;;;;;;8.39;86.01;99022.11;1784248;80;25392;-74
2022/09/23 04:56:46;;;;;;;30.62;16.45;;;;;;;8.40;86.19;99023.19;1784487;80;28219;-74
2022/09/23 04:59:12;;;;;;;26.57;15.72;;;;;;;8.37;86.04;99016.12;1784002;80;25491;-74
2022/09/23 05:01:39;;;;;;;22.95;14.33;;;;;;;8.35;86.40;99018.34;1784631;80;25479;-74
2022/09/23 05:04:09;;;;;;;28.85;15.80;;;;;;;8.36;86.45;99023.52;1784034;80;25721;-74
2022/09/23 05:06:36;;;;;;;63.38;28.85;;;;;;;8.40;86.36;99014.17;1784505;80;25448;-73
2022/09/23 05:09:06;;;;;;;38.63;19.75;;;;;;;8.40;86.33;99016.36;1784031;80;27470;-70
2022/09/23 05:11:34;;;;;;;41.27;21.30;;;;;;;8.40;86.07;99013.63;1784393;80;26068;-69
2022/09/23 05:14:00;;;;;;;49.98;23.18;;;;;;;8.41;86.01;99012.52;1784370;80;25670;-70
2022/09/23 05:16:26;;;;;;;74.17;31.52;;;;;;;8.45;85.99;99018.77;1784039;80;27479;-74
2022/09/23 05:18:54;;;;;;;57.50;28.50;;;;;;;8.48;86.05;99018.19;1784127;79;25465;-74
2022/09/23 05:21:22;;;;;;;56.92;29.02;;;;;;;8.54;86.08;99019.79;1784093;80;27402;-73
2022/09/23 05:23:55;;;;;;;37.40;22.05;;;;;;;8.60;86.19;99021.90;1784182;80;25449;-73
2022/09/23 05:26:25;;;;;;;29.27;19.48;;;;;;;8.60;86.03;99030.92;1784146;80;25483;-73
2022/09/23 05:28:53;;;;;;;30.50;19.07;;;;;;;8.61;86.24;99023.55;1784383;80;25747;-71
2022/09/23 05:31:23;;;;;;;31.85;18.30;;;;;;;8.65;86.02;99024.04;1784111;80;25461;-72
2022/09/23 05:33:54;;;;;;;36.40;23.35;;;;;;;8.70;85.84;99027.27;1784636;80;27315;-72
2022/09/23 05:36:22;;;;;;;37.73;22.10;;;;;;;8.73;86.00;99032.69;1784416;80;25598;-69
2022/09/23 05:38:50;;;;;;;32.00;17.67;;;;;;;8.73;86.08;99032.14;1784491;80;25639;-68
2022/09/23 05:41:19;;;;;;;26.45;16.48;;;;;;;8.74;86.08;99032.39;1784252;80;25418;-71
2022/09/23 05:43:46;;;;;;;24.90;15.72;;;;;;;8.72;85.98;99035.17;1784478;80;25453;-69
2022/09/23 05:46:16;;;;;;;21.68;14.45;;;;;;;8.72;86.24;99032.44;1784274;80;27453;-71
2022/09/23 05:48:47;;;;;;;22.30;13.85;;;;;;;8.73;86.13;99032.14;1784555;80;25730;-68
2022/09/23 05:51:20;;;;;;;21.77;13.68;;;;;;;8.75;86.05;99035.95;1784177;80;25634;-69
2022/09/23 05:53:51;;;;;;;20.90;13.00;;;;;;;8.75;86.04;99038.69;1784312;80;25481;-70
2022/09/23 05:56:21;;;;;;;19.17;12.75;;;;;;;8.78;86.21;99043.56;1784622;80;25633;-70
2022/09/23 05:58:53;;;;;;;19.37;12.60;;;;;;;8.86;85.95;99040.71;1784218;80;27409;-71
2022/09/23 06:01:30;;;;;;;25.20;14.05;;;;;;;8.89;85.84;99040.95;1784395;80;25447;-71
2022/09/23 06:03:54;;;;;;;29.90;18.90;;;;;;;9.02;86.21;99048.17;1781819;80;25792;-71
2022/09/23 06:06:32;;;;;;;24.63;15.50;;;;;;;9.11;86.09;99043.68;1784348;80;25665;-70
2022/09/23 06:08:59;;;;;;;36.33;17.75;;;;;;;9.19;85.63;99044.12;1783049;80;25662;-70
2022/09/23 06:11:31;;;;;;;23.30;15.28;;;;;;;9.28;85.86;99038.25;1784047;80;27458;-70
2022/09/23 06:14:01;;;;;;;26.30;16.10;;;;;;;9.28;85.68;99050.56;1784360;80;25424;-70
2022/09/23 06:16:31;;;;;;;30.80;18.03;;;;;;;9.25;85.71;99043.77;1784359;80;25595;-71
2022/09/23 06:18:59;;;;;;;25.30;16.95;;;;;;;9.27;85.68;99051.67;1784352;80;25661;-70
2022/09/23 06:21:25;;;;;;;25.23;16.40;;;;;;;9.29;85.49;99053.55;1784297;80;25404;-70
2022/09/23 06:23:52;;;;;;;21.25;14.25;;;;;;;9.34;85.62;99051.29;1784131;80;27416;-69
2022/09/23 06:26:18;;;;;;;20.75;15.18;;;;;;;9.34;84.90;99052.11;1784351;80;25448;-67
2022/09/23 06:28:52;;;;;;;22.93;15.15;;;;;;;9.42;85.42;99052.00;1781844;79;25572;-67
2022/09/23 06:31:19;;;;;;;18.95;12.55;;;;;;;9.49;85.24;99055.72;1775920;80;25862;-70
2022/09/23 06:33:45;;;;;;;22.05;12.30;;;;;;;9.52;84.93;99057.31;1775565;79;25605;-66
2022/09/23 06:36:14;;;;;;;20.50;13.18;;;;;;;9.51;84.28;99057.61;1775762;80;27228;-70
2022/09/23 06:38:48;;;;;;;20.25;12.95;;;;;;;9.49;84.35;99056.54;1775771;80;25425;-69
2022/09/23 06:41:14;;;;;;;22.77;12.85;;;;;;;9.52;84.52;99062.79;1775622;80;25742;-70
2022/09/23 06:43:41;;;;;;;18.50;11.80;;;;;;;9.50;83.72;99058.73;1775582;80;25452;-69
2022/09/23 06:46:09;;;;;;;27.50;13.25;;;;;;;9.45;83.99;99060.16;1775786;80;25583;-66
2022/09/23 06:48:35;;;;;;;21.68;12.85;;;;;;;9.40;84.05;99062.42;1775941;80;27318;-69
2022/09/23 06:51:06;;;;;;;22.17;13.20;;;;;;;9.37;83.84;99064.37;1775748;80;25647;-69
2022/09/23 06:53:33;;;;;;;24.87;13.20;;;;;;;9.38;84.08;99063.26;1776159;80;25426;-71
2022/09/23 06:56:10;;;;;;;24.98;13.85;;;;;;;9.39;83.95;99058.86;1776098;80;25764;-72
2022/09/23 06:58:38;;;;;;;29.70;13.78;;;;;;;9.51;84.24;99072.66;1776661;80;25547;-71
2022/09/23 07:01:08;;;;;;;24.67;13.50;;;;;;;9.63;84.27;99068.09;1775709;80;28284;-71
2022/09/23 07:03:36;;;;;;;21.00;12.73;;;;;;;9.76;83.76;99073.39;1776139;79;25476;-71
2022/09/23 07:06:04;;;;;;;26.07;14.68;;;;;;;9.90;83.95;99071.50;1775617;80;25663;-69
2022/09/23 07:08:35;;;;;;;23.73;12.33;;;;;;;10.11;82.99;99066.24;1775807;80;25596;-74
2022/09/23 07:11:05;;;;;;;33.23;18.30;;;;;;;10.26;83.64;99068.72;1775657;80;25422;-73
2022/09/23 07:13:33;;;;;;;20.72;11.33;;;;;;;10.48;83.25;99063.70;1776051;80;27409;-74
2022/09/23 07:16:01;;;;;;;20.88;11.80;;;;;;;10.63;81.65;99070.27;1775756;80;25647;-72
2022/09/23 07:18:32;;;;;;;25.00;14.90;;;;;;;10.66;82.81;99066.92;1775977;80;25460;-72
2022/09/23 07:21:14;;;;;;;30.20;15.83;;;;;;;10.83;82.68;99066.04;1775988;80;26046;-73
2022/09/23 07:23:43;;;;;;;27.75;16.00;;;;;;;10.97;81.91;99066.83;1775658;80;25468;-73
2022/09/23 07:26:10;;;;;;;23.77;12.73;;;;;;;11.14;81.35;99065.41;1775907;80;27368;-74
2022/09/23 07:28:37;;;;;;;19.98;12.82;;;;;;;11.27;80.64;99063.19;1777594;79;25674;-74
2022/09/23 07:31:08;;;;;;;16.75;12.03;;;;;;;11.47;81.49;99060.28;1795132;79;25658;-73
2022/09/23 07:33:38;;;;;;;24.72;15.13;;;;;;;11.71;80.22;99067.44;1795248;79;26076;-75
2022/09/23 07:36:12;;;;;;;18.70;13.35;;;;;;;11.90;79.95;99065.31;1795450;79;25698;-74
2022/09/23 07:38:39;;;;;;;22.87;14.63;;;;;;;12.07;79.30;99067.95;1795497;79;27254;-73
2022/09/23 07:41:09;;;;;;;18.95;12.35;;;;;;;12.16;78.38;99067.99;1795046;79;25707;-73
2022/09/23 07:43:38;;;;;;;21.70;14.20;;;;;;;12.18;78.95;99063.01;1795229;79;25660;-72
2022/09/23 07:46:09;;;;;;;21.97;13.93;;;;;;;12.24;79.01;99067.24;1795374;79;25630;-71
2022/09/23 07:48:38;;;;;;;24.45;15.98;;;;;;;12.34;78.08;99066.15;1795565;79;25625;-71
2022/09/23 07:51:29;;;;;;;26.35;15.40;;;;;;;12.37;78.01;99066.89;1795407;79;27430;-70
2022/09/23 07:53:57;;;;;;;22.58;15.23;;;;;;;12.61;78.00;99065.69;1795215;79;25930;-67
2022/09/23 07:56:29;;;;;;;30.00;19.50;;;;;;;12.78;76.14;99064.16;1795010;79;25666;-67
2022/09/23 07:58:59;;;;;;;26.97;17.82;;;;;;;12.97;77.47;99064.44;1795250;79;25616;-68
2022/09/23 08:01:32;;;;;;;22.98;15.98;;;;;;;13.15;76.42;99070.22;1795380;79;25594;-68
2022/09/23 08:04:06;;;;;;;22.62;15.28;;;;;;;13.45;74.96;99066.88;1794058;79;27792;-70
2022/09/23 08:06:33;;;;;;;21.30;14.15;;;;;;;13.62;73.76;99071.58;1795232;79;25614;-67
2022/09/23 08:09:01;;;;;;;28.27;18.65;;;;;;;13.80;73.59;99071.03;1795006;79;25709;-71
2022/09/23 08:11:28;;;;;;;34.23;19.10;;;;;;;14.14;74.14;99074.03;1795301;79;25475;-71
2022/09/23 08:13:55;;;;;;;22.52;14.83;;;;;;;14.49;73.86;99072.33;1795116;79;25653;-70
2022/09/23 08:16:22;;;;;;;19.27;13.48;;;;;;;14.77;72.08;99067.76;1764343;79;27583;-69
2022/09/23 08:18:49;;;;;;;20.72;14.15;;;;;;;14.98;70.63;99065.08;1795183;79;25771;-71
2022/09/23 08:21:20;;;;;;;23.10;14.80;;;;;;;15.35;70.07;99062.33;1795212;79;25463;-70
2022/09/23 08:23:48;;;;;;;24.92;15.38;;;;;;;15.71;67.56;99056.75;1795311;79;25609;-71
2022/09/23 08:26:14;;;;;;;27.93;16.48;;;;;;;16.05;69.63;99065.08;1794909;79;25627;-69
2022/09/23 08:28:46;;;;;;;24.67;14.63;;;;;;;16.43;69.60;99064.59;1795113;79;28033;-70
2022/09/23 08:31:14;;;;;;;20.02;12.85;;;;;;;16.89;64.72;99067.28;1795221;79;25984;-71
2022/09/23 08:33:41;;;;;;;17.95;11.35;;;;;;;17.19;64.69;99062.09;1764118;79;25446;-71
2022/09/23 08:36:08;;;;;;;19.48;12.73;;;;;;;17.51;64.49;99061.44;1795037;79;25588;-71
2022/09/23 08:38:35;;;;;;;17.62;11.75;;;;;;;17.90;64.31;99054.82;1795169;79;25726;-71
2022/09/23 08:41:32;;;;;;;16.15;11.55;;;;;;;18.25;63.92;99060.33;1795081;79;28039;-71
2022/09/23 08:44:22;;;;;;;16.30;11.45;;;;;;;18.70;62.91;99050.54;1795071;79;25638;-71
2022/09/23 08:46:57;;;;;;;17.02;11.75;;;;;;;19.31;61.36;99048.39;1722198;83;25731;-71
2022/09/23 08:49:29;;;;;;;14.15;10.40;;;;;;;19.72;58.48;99047.25;1721763;83;25954;-72
2022/09/23 08:51:58;;;;;;;12.30;10.13;;;;;;;19.84;56.26;99051.04;1721621;83;25835;-70
2022/09/23 08:54:27;;;;;;;13.48;10.43;;;;;;;19.47;58.24;99043.37;1722328;83;27325;-71
2022/09/23 08:56:58;;;;;;;13.93;9.95;;;;;;;19.09;56.77;99038.79;1721897;83;25746;-69
2022/09/23 08:59:34;;;;;;;15.78;10.90;;;;;;;18.91;58.84;99046.69;1722219;83;25676;-71
2022/09/23 09:02:05;;;;;;;13.30;10.05;;;;;;;19.12;59.00;99038.06;1721020;83;25457;-71
2022/09/23 09:04:39;;;;;;;12.55;9.13;;;;;;;19.42;56.41;99039.48;1720444;83;25796;-72
2022/09/23 09:07:28;;;;;;;13.60;9.53;;;;;;;19.41;51.52;99035.91;1722082;83;27489;-71
2022/09/23 09:10:14;;;;;;;13.08;9.55;;;;;;;19.46;55.75;99034.00;1721577;83;25835;-69
2022/09/23 09:12:55;;;;;;;13.40;8.85;;;;;;;20.10;55.46;99032.87;1722032;83;25731;-69
2022/09/23 09:15:26;;;;;;;11.30;9.35;;;;;;;20.74;54.32;99028.19;1721229;83;25698;-69
2022/09/23 09:18:14;;;;;;;10.88;8.43;;;;;;;21.19;51.68;99024.89;1722233;83;25699;-68
2022/09/23 09:21:04;;;;;;;7.95;6.90;;;;;;;21.39;49.61;99026.14;1721586;83;28192;-64
2022/09/23 09:23:41;;;;;;;8.23;6.17;;;;;;;21.13;49.42;99034.15;1778890;80;25761;-67
2022/09/23 09:26:21;;;;;;;8.13;6.87;;;;;;;20.75;51.79;99032.58;1795169;79;25578;-68
2022/09/23 09:28:59;;;;;;;9.75;7.45;;;;;;;20.47;52.66;99032.34;1776914;80;25653;-68
2022/09/23 09:31:42;;;;;;;8.28;6.90;;;;;;;20.33;52.40;99030.70;1794980;80;25695;-65
2022/09/23 09:34:42;;;;;;;9.50;6.80;;;;;;;20.72;50.06;99022.80;1794929;80;27391;-65
2022/09/23 09:37:40;;;;;;;7.23;4.73;;;;;;;20.97;49.41;99019.59;1794920;80;25393;-67
2022/09/23 09:40:15;;;;;;;6.15;4.47;;;;;;;20.74;48.64;99014.27;1795155;80;25495;-65
2022/09/23 09:42:45;;;;;;;5.42;4.40;;;;;;;20.69;49.46;99009.82;1794969;80;25589;-64
2022/09/23 09:45:26;;;;;;;6.17;5.03;;;;;;;20.82;49.42;99011.01;1795361;79;25636;-66
2022/09/23 09:48:16;;;;;;;7.90;5.80;;;;;;;21.16;47.18;99000.56;1795184;80;27572;-66
2022/09/23 09:50:54;;;;;;;7.37;5.20;;;;;;;21.22;48.61;98996.27;1794424;80;25471;-65
2022/09/23 09:53:29;;;;;;;6.72;4.75;;;;;;;21.08;49.14;98994.09;1795073;79;25432;-65
2022/09/23 09:56:08;;;;;;;8.50;5.47;;;;;;;21.17;49.04;98992.41;1795208;79;26156;-66
2022/09/23 09:58:54;;;;;;;7.12;4.50;;;;;;;21.59;48.59;98987.77;1795954;79;25433;-66
2022/09/23 10:01:31;;;;;;;6.08;4.22;;;;;;;21.27;46.47;98988.95;1795344;79;27452;-67
2022/09/23 10:04:22;;;;;;;6.80;5.22;;;;;;;20.65;45.53;98990.05;1794016;79;25697;-67
2022/09/23 10:07:14;;;;;;;5.90;4.40;;;;;;;19.96;47.04;98986.10;1795303;79;25446;-68
2022/09/23 10:09:49;;;;;;;6.40;4.92;;;;;;;19.13;47.51;98984.69;1792162;79;25563;-67
2022/09/23 10:12:19;;;;;;;6.97;4.83;;;;;;;18.50;50.16;98989.98;1795460;79;25444;-67
2022/09/23 10:14:51;;;;;;;5.70;4.60;;;;;;;18.43;50.27;98986.47;1795581;79;28311;-67
2022/09/23 10:17:23;;;;;;;5.80;5.03;;;;;;;18.37;51.03;98983.17;1794944;79;25428;-66
2022/09/23 10:20:12;;;;;;;5.83;4.53;;;;;;;18.28;51.07;98977.78;1793909;79;25641;-68
2022/09/23 10:22:42;;;;;;;5.87;5.28;;;;;;;18.08;51.85;98972.71;1795658;79;25691;-63
2022/09/23 10:25:26;;;;;;;8.65;4.85;;;;;;;18.01;51.93;98977.48;1795316;79;25585;-68
2022/09/23 10:27:53;;;;;;;6.20;4.83;;;;;;;18.29;52.33;98977.20;1795323;79;27689;-67
2022/09/23 10:30:26;;;;;;;7.80;5.10;;;;;;;18.95;52.51;98967.03;1794983;79;25639;-67
2022/09/23 10:32:55;;;;;;;6.95;4.50;;;;;;;19.71;50.30;98967.78;1795319;79;25593;-64
2022/09/23 10:35:25;;;;;;;5.95;4.37;;;;;;;20.59;49.72;98966.50;1795468;79;26255;-66
2022/09/23 10:37:54;;;;;;;7.17;4.45;;;;;;;21.41;47.47;98966.61;1795500;79;25435;-65
2022/09/23 10:46:38;;;;;;;4.97;4.20;;;;;;;21.03;46.38;98965.97;1795163;79;25638;-64
2022/09/23 10:49:42;;;;;;;6.10;3.77;;;;;;;20.79;47.09;98962.44;1795486;79;25510;-65
2022/09/23 10:52:26;;;;;;;5.10;3.92;;;;;;;20.60;45.31;98962.52;1668761;86;25574;-65
2022/09/23 10:55:10;;;;;;;5.60;3.70;;;;;;;19.96;45.29;98963.27;1665795;86;28301;-64
2022/09/23 10:58:06;;;;;;;5.95;3.85;;;;;;;19.60;46.03;98954.28;1668520;86;26126;-65
2022/09/23 11:01:04;;;;;;;6.65;3.90;;;;;;;19.89;47.07;98961.16;1669223;86;25470;-64
2022/09/23 11:03:57;;;;;;;4.87;3.72;;;;;;;20.25;46.00;98951.27;1668656;86;25718;-65
2022/09/23 11:06:44;;;;;;;3.98;3.10;;;;;;;20.31;44.05;98957.31;1668674;86;25694;-64
2022/09/23 11:09:32;;;;;;;7.08;3.25;;;;;;;20.15;44.60;98949.91;1608815;89;27570;-64
2022/09/23 11:12:32;;;;;;;3.55;3.05;;;;;;;20.08;45.71;98953.97;1607261;89;25760;-64
2022/09/23 11:15:38;;;;;;;4.07;2.80;;;;;;;19.90;45.89;98950.84;1609006;89;25698;-64
2022/09/23 11:18:22;;;;;;;4.45;3.30;;;;;;;19.53;44.71;98950.19;1608864;89;25487;-65
2022/09/23 11:20:54;;;;;;;3.75;2.77;;;;;;;18.92;46.76;98951.09;1608592;87;25804;-66
2022/09/23 11:23:53;;;;;;;4.50;2.98;;;;;;;18.47;47.81;98956.02;1608713;89;27469;-66
2022/09/23 11:26:43;;;;;;;5.03;3.22;;;;;;;18.13;48.38;98944.72;1608826;89;25503;-67
2022/09/23 11:29:42;;;;;;;4.47;3.33;;;;;;;17.87;48.59;98948.80;1653586;84;25588;-66
2022/09/23 11:32:14;;;;;;;4.90;3.47;;;;;;;17.71;48.75;98943.25;1693188;84;25493;-67
2022/09/23 11:35:12;;;;;;;4.30;3.00;;;;;;;17.67;49.52;98942.33;1693057;84;25563;-67
2022/09/23 11:37:43;;;;;;;4.67;2.90;;;;;;;17.47;49.30;98944.18;1691715;84;27430;-67
2022/09/23 11:40:28;;;;;;;5.33;3.98;;;;;;;17.32;50.19;98939.61;1693184;84;25699;-64
2022/09/23 11:43:22;;;;;;;8.63;5.78;;;;;;;17.78;50.84;98935.11;1693508;83;25864;-65
2022/09/23 11:46:03;;;;;;;2.60;2.27;;;;;;;18.94;49.43;98928.73;1742811;78;25739;-66
2022/09/23 11:48:58;;;;;;;3.60;2.22;;;;;;;19.62;47.74;98929.10;1827193;78;25670;-65
2022/09/23 11:51:51;;;;;;;3.33;2.10;;;;;;;20.12;46.38;98924.83;1821632;78;27340;-66
2022/09/23 11:54:23;;;;;;;3.00;2.22;;;;;;;20.65;45.66;98922.66;1793466;79;25650;-65
2022/09/23 11:56:54;;;;;;;2.70;2.00;;;;;;;20.53;43.83;98934.00;1796439;79;25472;-66
2022/09/23 11:59:37;;;;;;;3.15;2.02;;;;;;;20.56;44.15;98927.69;1766541;79;25647;-62
2022/09/23 12:02:13;;;;;;;3.45;2.08;;;;;;;20.65;46.09;98924.63;1795846;79;25863;-64
2022/09/23 12:04:47;;;;;;;3.25;2.10;;;;;;;20.92;45.18;98928.79;1795857;79;27334;-64
2022/09/23 12:07:19;;;;;;;3.52;2.15;;;;;;;20.96;42.58;98921.88;1795494;79;26356;-62
2022/09/23 12:10:06;;;;;;;2.20;2.00;;;;;;;20.83;43.86;98916.52;1794333;79;25721;-65
2022/09/23 12:12:56;;;;;;;2.95;2.33;;;;;;;20.78;43.92;98915.47;1795911;79;25679;-63